sensor_id;sensor_type;location;lat;lon;timestamp;temperature;humidity
14182;DHT22;7171;50.936;6.764;2022-11-13T00:02:18;11.30;99.90
14182;DHT22;7171;50.936;6.764;2022-11-13T00:04:45;11.30;99.90
14182;DHT22;7171;50.936;6.764;2022-11-13T00:07:11;11.30;99.90
14182;DHT22;7171;50.936;6.764;2022-11-13T00:09:38;11.30;99.90
14182;DHT22;7171;50.936;6.764;2022-11-13T00:12:05;11.30;99.90
14182;DHT22;7171;50.936;6.764;2022-11-13T00:14:31;11.40;99.90
14182;DHT22;7171;50.936;6.764;2022-11-13T00:16:59;11.30;99.90
14182;DHT22;7171;50.936;6.764;2022-11-13T00:19:26;11.40;99.90
14182;DHT22;7171;50.936;6.764;2022-11-13T00:21:53;11.40;99.90
14182;DHT22;7171;50.936;6.764;2022-11-13T00:24:21;11.40;99.90
14182;DHT22;7171;50.936;6.764;2022-11-13T00:26:47;11.40;99.90
14182;DHT22;7171;50.936;6.764;2022-11-13T00:29:14;11.40;99.90
14182;DHT22;7171;50.936;6.764;2022-11-13T00:31:41;11.40;99.90
14182;DHT22;7171;50.936;6.764;2022-11-13T00:34:09;11.40;99.90
14182;DHT22;7171;50.936;6.764;2022-11-13T00:36:36;11.30;99.90
14182;DHT22;7171;50.936;6.764;2022-11-13T00:39:03;11.30;99.90
14182;DHT22;7171;50.936;6.764;2022-11-13T00:41:29;11.30;99.90
14182;DHT22;7171;50.936;6.764;2022-11-13T00:43:56;11.20;99.90
14182;DHT22;7171;50.936;6.764;2022-11-13T00:46:23;11.20;99.90
14182;DHT22;7171;50.936;6.764;2022-11-13T00:48:49;11.20;99.90
14182;DHT22;7171;50.936;6.764;2022-11-13T00:51:17;11.20;99.90
14182;DHT22;7171;50.936;6.764;2022-11-13T00:53:44;11.20;99.90
14182;DHT22;7171;50.936;6.764;2022-11-13T00:56:11;11.10;99.90
14182;DHT22;7171;50.936;6.764;2022-11-13T00:58:37;11.10;99.90
14182;DHT22;7171;50.936;6.764;2022-11-13T01:01:06;11.10;99.90
14182;DHT22;7171;50.936;6.764;2022-11-13T01:03:34;11.00;99.90
14182;DHT22;7171;50.936;6.764;2022-11-13T01:06:09;11.00;99.90
14182;DHT22;7171;50.936;6.764;2022-11-13T01:08:37;11.00;99.90
14182;DHT22;7171;50.936;6.764;2022-11-13T01:11:08;11.00;99.90
14182;DHT22;7171;50.936;6.764;2022-11-13T01:13:35;10.90;99.90
14182;DHT22;7171;50.936;6.764;2022-11-13T01:16:04;11.00;99.90
14182;DHT22;7171;50.936;6.764;2022-11-13T01:18:32;10.90;99.90
14182;DHT22;7171;50.936;6.764;2022-11-13T01:21:02;10.90;99.90
14182;DHT22;7171;50.936;6.764;2022-11-13T01:23:29;10.90;99.90
14182;DHT22;7171;50.936;6.764;2022-11-13T01:26:03;10.90;99.90
14182;DHT22;7171;50.936;6.764;2022-11-13T01:28:30;10.90;99.90
14182;DHT22;7171;50.936;6.764;2022-11-13T01:30:57;10.90;99.90
14182;DHT22;7171;50.936;6.764;2022-11-13T01:33:23;10.90;99.90
14182;DHT22;7171;50.936;6.764;2022-11-13T01:35:50;10.90;99.90
14182;DHT22;7171;50.936;6.764;2022-11-13T01:38:17;10.90;99.90
14182;DHT22;7171;50.936;6.764;2022-11-13T01:40:44;10.90;99.90
14182;DHT22;7171;50.936;6.764;2022-11-13T01:43:21;10.90;99.90
14182;DHT22;7171;50.936;6.764;2022-11-13T01:46:10;10.80;99.90
14182;DHT22;7171;50.936;6.764;2022-11-13T01:48:40;10.80;99.90
14182;DHT22;7171;50.936;6.764;2022-11-13T01:51:10;10.80;99.90
14182;DHT22;7171;50.936;6.764;2022-11-13T01:53:40;10.80;99.90
14182;DHT22;7171;50.936;6.764;2022-11-13T01:56:09;10.70;99.90
14182;DHT22;7171;50.936;6.764;2022-11-13T01:58:38;10.70;99.90
14182;DHT22;7171;50.936;6.764;2022-11-13T02:01:06;10.70;99.90
14182;DHT22;7171;50.936;6.764;2022-11-13T02:03:32;10.70;99.90
14182;DHT22;7171;50.936;6.764;2022-11-13T02:05:59;10.70;99.90
14182;DHT22;7171;50.936;6.764;2022-11-13T02:08:26;10.60;99.90
14182;DHT22;7171;50.936;6.764;2022-11-13T02:10:53;10.60;99.90
14182;DHT22;7171;50.936;6.764;2022-11-13T02:13:20;10.60;99.90
14182;DHT22;7171;50.936;6.764;2022-11-13T02:15:49;10.60;99.90
14182;DHT22;7171;50.936;6.764;2022-11-13T02:18:17;10.60;99.90
14182;DHT22;7171;50.936;6.764;2022-11-13T02:20:49;10.60;99.90
14182;DHT22;7171;50.936;6.764;2022-11-13T02:23:26;10.60;99.90
14182;DHT22;7171;50.936;6.764;2022-11-13T02:25:55;10.70;99.90
14182;DHT22;7171;50.936;6.764;2022-11-13T02:28:22;10.70;99.90
14182;DHT22;7171;50.936;6.764;2022-11-13T02:30:49;10.70;99.90
14182;DHT22;7171;50.936;6.764;2022-11-13T02:33:20;10.70;99.90
14182;DHT22;7171;50.936;6.764;2022-11-13T02:35:47;10.70;99.90
14182;DHT22;7171;50.936;6.764;2022-11-13T02:38:14;10.70;99.90
14182;DHT22;7171;50.936;6.764;2022-11-13T02:40:41;10.70;99.90
14182;DHT22;7171;50.936;6.764;2022-11-13T02:43:09;10.60;99.90
14182;DHT22;7171;50.936;6.764;2022-11-13T02:45:35;10.60;99.90
14182;DHT22;7171;50.936;6.764;2022-11-13T02:48:04;10.60;99.90
14182;DHT22;7171;50.936;6.764;2022-11-13T02:50:31;10.60;99.90
14182;DHT22;7171;50.936;6.764;2022-11-13T02:52:58;10.60;99.90
14182;DHT22;7171;50.936;6.764;2022-11-13T02:55:25;10.60;99.90
14182;DHT22;7171;50.936;6.764;2022-11-13T02:57:52;10.60;99.90
14182;DHT22;7171;50.936;6.764;2022-11-13T03:00:20;10.60;99.90
14182;DHT22;7171;50.936;6.764;2022-11-13T03:02:47;10.60;99.90
14182;DHT22;7171;50.936;6.764;2022-11-13T03:05:13;10.60;99.90
14182;DHT22;7171;50.936;6.764;2022-11-13T03:07:40;10.50;99.90
14182;DHT22;7171;50.936;6.764;2022-11-13T03:10:08;10.50;99.90
14182;DHT22;7171;50.936;6.764;2022-11-13T03:12:35;10.50;99.90
14182;DHT22;7171;50.936;6.764;2022-11-13T03:15:02;10.50;99.90
14182;DHT22;7171;50.936;6.764;2022-11-13T03:17:31;10.50;99.90
14182;DHT22;7171;50.936;6.764;2022-11-13T03:19:57;10.50;99.90
14182;DHT22;7171;50.936;6.764;2022-11-13T03:22:24;10.40;99.90
14182;DHT22;7171;50.936;6.764;2022-11-13T03:24:51;10.40;99.90
14182;DHT22;7171;50.936;6.764;2022-11-13T03:27:18;10.40;99.90
14182;DHT22;7171;50.936;6.764;2022-11-13T03:29:45;10.40;99.90
14182;DHT22;7171;50.936;6.764;2022-11-13T03:32:12;10.40;99.90
14182;DHT22;7171;50.936;6.764;2022-11-13T03:34:40;10.40;99.90
14182;DHT22;7171;50.936;6.764;2022-11-13T03:37:06;10.40;99.90
14182;DHT22;7171;50.936;6.764;2022-11-13T03:39:33;10.40;99.90
14182;DHT22;7171;50.936;6.764;2022-11-13T03:42:00;10.40;99.90
14182;DHT22;7171;50.936;6.764;2022-11-13T03:44:26;10.40;99.90
14182;DHT22;7171;50.936;6.764;2022-11-13T03:46:53;10.40;99.90
14182;DHT22;7171;50.936;6.764;2022-11-13T03:49:20;10.30;99.90
14182;DHT22;7171;50.936;6.764;2022-11-13T03:51:48;10.40;99.90
14182;DHT22;7171;50.936;6.764;2022-11-13T03:54:14;10.30;99.90
14182;DHT22;7171;50.936;6.764;2022-11-13T03:56:41;10.40;99.90
14182;DHT22;7171;50.936;6.764;2022-11-13T03:59:08;10.40;99.90
14182;DHT22;7171;50.936;6.764;2022-11-13T04:01:34;10.40;99.90
14182;DHT22;7171;50.936;6.764;2022-11-13T04:04:01;10.40;99.90
14182;DHT22;7171;50.936;6.764;2022-11-13T04:06:28;10.30;99.90
14182;DHT22;7171;50.936;6.764;2022-11-13T04:08:56;10.40;99.90
14182;DHT22;7171;50.936;6.764;2022-11-13T04:11:22;10.30;99.90
14182;DHT22;7171;50.936;6.764;2022-11-13T04:13:49;10.40;99.90
14182;DHT22;7171;50.936;6.764;2022-11-13T04:16:16;10.40;99.90
14182;DHT22;7171;50.936;6.764;2022-11-13T04:18:43;10.40;99.90
14182;DHT22;7171;50.936;6.764;2022-11-13T04:21:09;10.40;99.90
14182;DHT22;7171;50.936;6.764;2022-11-13T04:23:36;10.40;99.90
14182;DHT22;7171;50.936;6.764;2022-11-13T04:26:04;10.30;99.90
14182;DHT22;7171;50.936;6.764;2022-11-13T04:28:31;10.30;99.90
14182;DHT22;7171;50.936;6.764;2022-11-13T04:30:57;10.30;99.90
14182;DHT22;7171;50.936;6.764;2022-11-13T04:33:24;10.30;99.90
14182;DHT22;7171;50.936;6.764;2022-11-13T04:35:51;10.30;99.90
14182;DHT22;7171;50.936;6.764;2022-11-13T04:38:17;10.30;99.90
14182;DHT22;7171;50.936;6.764;2022-11-13T04:40:47;10.30;99.90
14182;DHT22;7171;50.936;6.764;2022-11-13T04:43:15;10.30;99.90
14182;DHT22;7171;50.936;6.764;2022-11-13T04:45:41;10.30;99.90
14182;DHT22;7171;50.936;6.764;2022-11-13T04:48:08;10.30;99.90
14182;DHT22;7171;50.936;6.764;2022-11-13T04:50:34;10.20;99.90
14182;DHT22;7171;50.936;6.764;2022-11-13T04:53:01;10.20;99.90
14182;DHT22;7171;50.936;6.764;2022-11-13T04:55:28;10.20;99.90
14182;DHT22;7171;50.936;6.764;2022-11-13T04:57:55;10.20;99.90
14182;DHT22;7171;50.936;6.764;2022-11-13T05:00:23;10.20;99.90
14182;DHT22;7171;50.936;6.764;2022-11-13T05:02:49;10.20;99.90
14182;DHT22;7171;50.936;6.764;2022-11-13T05:05:16;10.20;99.90
14182;DHT22;7171;50.936;6.764;2022-11-13T05:07:43;10.20;99.90
14182;DHT22;7171;50.936;6.764;2022-11-13T05:10:09;10.20;99.90
14182;DHT22;7171;50.936;6.764;2022-11-13T05:12:36;10.20;99.90
14182;DHT22;7171;50.936;6.764;2022-11-13T05:15:04;10.20;99.90
14182;DHT22;7171;50.936;6.764;2022-11-13T05:17:32;10.20;99.90
14182;DHT22;7171;50.936;6.764;2022-11-13T05:19:58;10.20;99.90
14182;DHT22;7171;50.936;6.764;2022-11-13T05:22:25;10.20;99.90
14182;DHT22;7171;50.936;6.764;2022-11-13T05:24:52;10.20;99.90
14182;DHT22;7171;50.936;6.764;2022-11-13T05:27:18;10.20;99.90
14182;DHT22;7171;50.936;6.764;2022-11-13T05:29:45;10.20;99.90
14182;DHT22;7171;50.936;6.764;2022-11-13T05:32:12;10.20;99.90
14182;DHT22;7171;50.936;6.764;2022-11-13T05:34:40;10.20;99.90
14182;DHT22;7171;50.936;6.764;2022-11-13T05:37:06;10.20;99.90
14182;DHT22;7171;50.936;6.764;2022-11-13T05:39:33;10.20;99.90
14182;DHT22;7171;50.936;6.764;2022-11-13T05:42:00;10.20;99.90
14182;DHT22;7171;50.936;6.764;2022-11-13T05:44:26;10.20;99.90
14182;DHT22;7171;50.936;6.764;2022-11-13T05:46:53;10.20;99.90
14182;DHT22;7171;50.936;6.764;2022-11-13T05:49:20;10.10;99.90
14182;DHT22;7171;50.936;6.764;2022-11-13T05:51:48;10.10;99.90
14182;DHT22;7171;50.936;6.764;2022-11-13T05:54:15;10.10;99.90
14182;DHT22;7171;50.936;6.764;2022-11-13T05:56:41;10.00;99.90
14182;DHT22;7171;50.936;6.764;2022-11-13T05:59:08;10.00;99.90
14182;DHT22;7171;50.936;6.764;2022-11-13T06:01:36;10.00;99.90
14182;DHT22;7171;50.936;6.764;2022-11-13T06:04:04;9.90;99.90
14182;DHT22;7171;50.936;6.764;2022-11-13T06:06:32;9.90;99.90
14182;DHT22;7171;50.936;6.764;2022-11-13T06:09:03;9.80;99.90
14182;DHT22;7171;50.936;6.764;2022-11-13T06:11:30;9.80;99.90
14182;DHT22;7171;50.936;6.764;2022-11-13T06:13:58;9.70;99.90
14182;DHT22;7171;50.936;6.764;2022-11-13T06:16:27;9.70;99.90
14182;DHT22;7171;50.936;6.764;2022-11-13T06:18:55;9.70;99.90
14182;DHT22;7171;50.936;6.764;2022-11-13T06:21:24;9.60;99.90
14182;DHT22;7171;50.936;6.764;2022-11-13T06:23:51;9.60;99.90
14182;DHT22;7171;50.936;6.764;2022-11-13T06:26:21;9.60;99.90
14182;DHT22;7171;50.936;6.764;2022-11-13T06:28:48;9.60;99.90
14182;DHT22;7171;50.936;6.764;2022-11-13T06:31:17;9.60;99.90
14182;DHT22;7171;50.936;6.764;2022-11-13T06:33:44;9.60;99.90
14182;DHT22;7171;50.936;6.764;2022-11-13T06:36:12;9.60;99.90
14182;DHT22;7171;50.936;6.764;2022-11-13T06:38:40;9.70;99.90
14182;DHT22;7171;50.936;6.764;2022-11-13T06:41:08;9.70;99.90
14182;DHT22;7171;50.936;6.764;2022-11-13T06:43:36;9.70;99.90
14182;DHT22;7171;50.936;6.764;2022-11-13T06:46:04;9.80;99.90
14182;DHT22;7171;50.936;6.764;2022-11-13T06:48:32;9.80;99.90
14182;DHT22;7171;50.936;6.764;2022-11-13T06:51:00;9.80;99.90
14182;DHT22;7171;50.936;6.764;2022-11-13T06:53:27;9.80;99.90
14182;DHT22;7171;50.936;6.764;2022-11-13T06:55:54;9.80;99.90
14182;DHT22;7171;50.936;6.764;2022-11-13T06:58:21;9.80;99.90
14182;DHT22;7171;50.936;6.764;2022-11-13T07:00:49;9.80;99.90
14182;DHT22;7171;50.936;6.764;2022-11-13T07:03:16;9.80;99.90
14182;DHT22;7171;50.936;6.764;2022-11-13T07:05:44;9.70;99.90
14182;DHT22;7171;50.936;6.764;2022-11-13T07:08:11;9.70;99.90
14182;DHT22;7171;50.936;6.764;2022-11-13T07:10:38;9.70;99.90
14182;DHT22;7171;50.936;6.764;2022-11-13T07:13:05;9.70;99.90
14182;DHT22;7171;50.936;6.764;2022-11-13T07:15:32;9.60;99.90
14182;DHT22;7171;50.936;6.764;2022-11-13T07:18:01;9.60;99.90
14182;DHT22;7171;50.936;6.764;2022-11-13T07:20:28;9.60;99.90
14182;DHT22;7171;50.936;6.764;2022-11-13T07:22:55;9.60;99.90
14182;DHT22;7171;50.936;6.764;2022-11-13T07:25:22;10.10;99.90
14182;DHT22;7171;50.936;6.764;2022-11-13T07:27:49;9.50;99.90
14182;DHT22;7171;50.936;6.764;2022-11-13T07:30:17;9.50;99.90
14182;DHT22;7171;50.936;6.764;2022-11-13T07:32:44;9.50;99.90
14182;DHT22;7171;50.936;6.764;2022-11-13T07:35:12;9.50;99.90
14182;DHT22;7171;50.936;6.764;2022-11-13T07:37:39;9.50;99.90
14182;DHT22;7171;50.936;6.764;2022-11-13T07:40:06;9.50;99.90
14182;DHT22;7171;50.936;6.764;2022-11-13T07:42:33;9.50;99.90
14182;DHT22;7171;50.936;6.764;2022-11-13T07:45:00;9.50;99.90
14182;DHT22;7171;50.936;6.764;2022-11-13T07:47:27;9.50;99.90
14182;DHT22;7171;50.936;6.764;2022-11-13T07:49:54;9.50;99.90
14182;DHT22;7171;50.936;6.764;2022-11-13T07:52:22;9.50;99.90
14182;DHT22;7171;50.936;6.764;2022-11-13T07:54:48;9.60;99.90
14182;DHT22;7171;50.936;6.764;2022-11-13T07:57:15;9.60;99.90
14182;DHT22;7171;50.936;6.764;2022-11-13T07:59:42;9.70;99.90
14182;DHT22;7171;50.936;6.764;2022-11-13T08:02:13;9.70;99.90
14182;DHT22;7171;50.936;6.764;2022-11-13T08:04:40;9.70;99.90
14182;DHT22;7171;50.936;6.764;2022-11-13T08:07:09;9.80;99.90
14182;DHT22;7171;50.936;6.764;2022-11-13T08:09:37;9.80;99.90
14182;DHT22;7171;50.936;6.764;2022-11-13T08:12:04;9.80;99.90
14182;DHT22;7171;50.936;6.764;2022-11-13T08:14:31;9.90;99.90
14182;DHT22;7171;50.936;6.764;2022-11-13T08:16:58;9.90;99.90
14182;DHT22;7171;50.936;6.764;2022-11-13T08:19:24;9.90;99.90
14182;DHT22;7171;50.936;6.764;2022-11-13T08:21:51;9.90;99.90
14182;DHT22;7171;50.936;6.764;2022-11-13T08:24:18;9.90;99.90
14182;DHT22;7171;50.936;6.764;2022-11-13T08:26:46;9.90;99.90
14182;DHT22;7171;50.936;6.764;2022-11-13T08:29:12;9.90;99.90
14182;DHT22;7171;50.936;6.764;2022-11-13T08:31:39;9.90;99.90
14182;DHT22;7171;50.936;6.764;2022-11-13T08:34:06;9.90;99.90
14182;DHT22;7171;50.936;6.764;2022-11-13T08:36:32;9.90;99.90
14182;DHT22;7171;50.936;6.764;2022-11-13T08:38:59;10.00;99.90
14182;DHT22;7171;50.936;6.764;2022-11-13T08:41:26;10.00;99.90
14182;DHT22;7171;50.936;6.764;2022-11-13T08:43:54;10.00;99.90
14182;DHT22;7171;50.936;6.764;2022-11-13T08:46:20;10.10;99.90
14182;DHT22;7171;50.936;6.764;2022-11-13T08:48:47;10.10;99.90
14182;DHT22;7171;50.936;6.764;2022-11-13T08:51:14;10.10;99.90
14182;DHT22;7171;50.936;6.764;2022-11-13T08:53:41;10.20;99.90
14182;DHT22;7171;50.936;6.764;2022-11-13T08:56:07;10.20;99.90
14182;DHT22;7171;50.936;6.764;2022-11-13T08:58:34;10.20;99.90
14182;DHT22;7171;50.936;6.764;2022-11-13T09:01:02;10.30;99.90
14182;DHT22;7171;50.936;6.764;2022-11-13T09:03:29;10.30;99.90
14182;DHT22;7171;50.936;6.764;2022-11-13T09:05:56;10.30;99.90
14182;DHT22;7171;50.936;6.764;2022-11-13T09:08:22;10.40;99.90
14182;DHT22;7171;50.936;6.764;2022-11-13T09:10:49;10.40;99.90
14182;DHT22;7171;50.936;6.764;2022-11-13T09:13:16;10.50;99.90
14182;DHT22;7171;50.936;6.764;2022-11-13T09:15:42;10.50;99.90
14182;DHT22;7171;50.936;6.764;2022-11-13T09:18:10;10.60;99.90
14182;DHT22;7171;50.936;6.764;2022-11-13T09:20:37;10.60;99.90
14182;DHT22;7171;50.936;6.764;2022-11-13T09:23:05;10.70;99.90
14182;DHT22;7171;50.936;6.764;2022-11-13T09:25:35;10.80;99.90
14182;DHT22;7171;50.936;6.764;2022-11-13T09:28:02;10.90;99.90
14182;DHT22;7171;50.936;6.764;2022-11-13T09:30:29;10.90;99.90
14182;DHT22;7171;50.936;6.764;2022-11-13T09:32:58;11.00;99.90
14182;DHT22;7171;50.936;6.764;2022-11-13T09:35:27;11.10;99.90
14182;DHT22;7171;50.936;6.764;2022-11-13T09:38:01;11.20;99.90
14182;DHT22;7171;50.936;6.764;2022-11-13T09:40:31;11.20;99.90
14182;DHT22;7171;50.936;6.764;2022-11-13T09:43:00;11.40;99.90
14182;DHT22;7171;50.936;6.764;2022-11-13T09:45:29;11.50;99.90
14182;DHT22;7171;50.936;6.764;2022-11-13T09:47:59;11.50;99.90
14182;DHT22;7171;50.936;6.764;2022-11-13T09:50:30;11.60;99.90
14182;DHT22;7171;50.936;6.764;2022-11-13T09:52:57;11.70;99.90
14182;DHT22;7171;50.936;6.764;2022-11-13T09:55:29;11.80;99.90
14182;DHT22;7171;50.936;6.764;2022-11-13T09:58:04;11.90;99.90
14182;DHT22;7171;50.936;6.764;2022-11-13T10:00:33;11.90;99.90
14182;DHT22;7171;50.936;6.764;2022-11-13T10:03:23;12.00;99.90
14182;DHT22;7171;50.936;6.764;2022-11-13T10:05:57;12.10;99.90
14182;DHT22;7171;50.936;6.764;2022-11-13T10:08:27;12.20;99.90
14182;DHT22;7171;50.936;6.764;2022-11-13T10:11:01;12.20;99.90
14182;DHT22;7171;50.936;6.764;2022-11-13T10:13:35;12.30;99.90
14182;DHT22;7171;50.936;6.764;2022-11-13T10:16:12;12.40;99.90
14182;DHT22;7171;50.936;6.764;2022-11-13T10:18:42;12.40;99.90
14182;DHT22;7171;50.936;6.764;2022-11-13T10:24:13;12.60;99.90
14182;DHT22;7171;50.936;6.764;2022-11-13T10:26:41;12.60;99.90
14182;DHT22;7171;50.936;6.764;2022-11-13T10:29:11;12.70;99.90
14182;DHT22;7171;50.936;6.764;2022-11-13T10:31:45;12.70;99.90
14182;DHT22;7171;50.936;6.764;2022-11-13T10:34:13;12.80;99.90
14182;DHT22;7171;50.936;6.764;2022-11-13T10:36:52;12.90;99.90
14182;DHT22;7171;50.936;6.764;2022-11-13T10:39:20;12.90;99.90
14182;DHT22;7171;50.936;6.764;2022-11-13T10:41:48;13.00;99.90
14182;DHT22;7171;50.936;6.764;2022-11-13T10:44:20;13.10;99.90
14182;DHT22;7171;50.936;6.764;2022-11-13T10:46:47;13.20;99.90
14182;DHT22;7171;50.936;6.764;2022-11-13T10:49:17;13.30;99.90
14182;DHT22;7171;50.936;6.764;2022-11-13T10:51:53;13.40;99.90
14182;DHT22;7171;50.936;6.764;2022-11-13T10:54:23;13.50;99.90
14182;DHT22;7171;50.936;6.764;2022-11-13T10:56:58;13.50;99.90
14182;DHT22;7171;50.936;6.764;2022-11-13T10:59:26;13.60;99.90
14182;DHT22;7171;50.936;6.764;2022-11-13T11:02:17;13.70;99.90
14182;DHT22;7171;50.936;6.764;2022-11-13T11:04:43;13.80;99.90
14182;DHT22;7171;50.936;6.764;2022-11-13T11:07:14;13.90;99.90
14182;DHT22;7171;50.936;6.764;2022-11-13T11:09:42;14.00;99.90
14182;DHT22;7171;50.936;6.764;2022-11-13T11:12:12;14.10;99.90
14182;DHT22;7171;50.936;6.764;2022-11-13T11:14:59;14.20;99.90
14182;DHT22;7171;50.936;6.764;2022-11-13T11:17:31;14.30;99.90
14182;DHT22;7171;50.936;6.764;2022-11-13T11:20:02;14.40;99.90
14182;DHT22;7171;50.936;6.764;2022-11-13T11:22:34;14.40;99.90
14182;DHT22;7171;50.936;6.764;2022-11-13T11:25:05;14.50;99.90
14182;DHT22;7171;50.936;6.764;2022-11-13T11:27:36;14.60;99.90
14182;DHT22;7171;50.936;6.764;2022-11-13T11:30:14;14.70;99.90
14182;DHT22;7171;50.936;6.764;2022-11-13T11:32:46;14.70;99.90
14182;DHT22;7171;50.936;6.764;2022-11-13T11:35:16;14.80;99.90
14182;DHT22;7171;50.936;6.764;2022-11-13T11:37:52;14.80;99.90
14182;DHT22;7171;50.936;6.764;2022-11-13T11:40:25;14.90;99.90
14182;DHT22;7171;50.936;6.764;2022-11-13T11:43:00;14.90;99.90
14182;DHT22;7171;50.936;6.764;2022-11-13T11:45:33;15.00;99.90
14182;DHT22;7171;50.936;6.764;2022-11-13T11:48:02;15.00;99.90
14182;DHT22;7171;50.936;6.764;2022-11-13T11:50:35;15.00;99.90
14182;DHT22;7171;50.936;6.764;2022-11-13T11:53:09;15.00;99.90
14182;DHT22;7171;50.936;6.764;2022-11-13T11:55:51;15.00;99.90
14182;DHT22;7171;50.936;6.764;2022-11-13T11:58:30;15.10;99.90
14182;DHT22;7171;50.936;6.764;2022-11-13T12:01:04;15.10;99.90
14182;DHT22;7171;50.936;6.764;2022-11-13T12:03:52;15.10;99.90
14182;DHT22;7171;50.936;6.764;2022-11-13T12:06:29;15.20;99.90
14182;DHT22;7171;50.936;6.764;2022-11-13T12:09:05;15.20;99.90
14182;DHT22;7171;50.936;6.764;2022-11-13T12:11:37;15.20;99.90
14182;DHT22;7171;50.936;6.764;2022-11-13T12:14:20;15.20;99.90
14182;DHT22;7171;50.936;6.764;2022-11-13T12:16:54;15.20;99.90
14182;DHT22;7171;50.936;6.764;2022-11-13T12:19:32;15.30;99.90
14182;DHT22;7171;50.936;6.764;2022-11-13T12:22:11;15.30;99.90
14182;DHT22;7171;50.936;6.764;2022-11-13T12:24:54;15.30;99.90
14182;DHT22;7171;50.936;6.764;2022-11-13T12:27:29;15.30;99.90
14182;DHT22;7171;50.936;6.764;2022-11-13T12:30:08;15.40;99.90
14182;DHT22;7171;50.936;6.764;2022-11-13T12:32:54;15.40;99.90
14182;DHT22;7171;50.936;6.764;2022-11-13T12:35:26;15.40;99.90
14182;DHT22;7171;50.936;6.764;2022-11-13T12:37:57;15.50;99.90
14182;DHT22;7171;50.936;6.764;2022-11-13T12:40:32;15.50;99.90
14182;DHT22;7171;50.936;6.764;2022-11-13T12:45:51;15.60;99.90
14182;DHT22;7171;50.936;6.764;2022-11-13T12:48:27;15.60;99.90
14182;DHT22;7171;50.936;6.764;2022-11-13T12:50:59;15.60;99.90
14182;DHT22;7171;50.936;6.764;2022-11-13T12:53:27;15.70;99.90
14182;DHT22;7171;50.936;6.764;2022-11-13T12:55:58;15.70;99.90
14182;DHT22;7171;50.936;6.764;2022-11-13T12:58:28;15.70;99.90
14182;DHT22;7171;50.936;6.764;2022-11-13T13:00:59;15.80;99.90
14182;DHT22;7171;50.936;6.764;2022-11-13T13:03:43;15.80;99.90
14182;DHT22;7171;50.936;6.764;2022-11-13T13:06:33;15.80;99.90
14182;DHT22;7171;50.936;6.764;2022-11-13T13:09:12;15.80;99.90
14182;DHT22;7171;50.936;6.764;2022-11-13T13:11:50;15.80;99.90
14182;DHT22;7171;50.936;6.764;2022-11-13T13:14:30;15.90;99.90
14182;DHT22;7171;50.936;6.764;2022-11-13T13:17:05;15.90;99.90
14182;DHT22;7171;50.936;6.764;2022-11-13T13:19:32;15.90;99.90
14182;DHT22;7171;50.936;6.764;2022-11-13T13:21:59;15.90;99.90
14182;DHT22;7171;50.936;6.764;2022-11-13T13:24:29;16.00;99.90
14182;DHT22;7171;50.936;6.764;2022-11-13T13:26:58;16.00;99.90
14182;DHT22;7171;50.936;6.764;2022-11-13T13:29:26;16.00;99.90
14182;DHT22;7171;50.936;6.764;2022-11-13T13:32:00;16.00;99.90
14182;DHT22;7171;50.936;6.764;2022-11-13T13:34:36;16.00;99.90
14182;DHT22;7171;50.936;6.764;2022-11-13T13:37:15;16.10;99.90
14182;DHT22;7171;50.936;6.764;2022-11-13T13:39:50;16.10;99.90
14182;DHT22;7171;50.936;6.764;2022-11-13T13:42:31;16.10;99.90
14182;DHT22;7171;50.936;6.764;2022-11-13T13:45:15;16.20;99.90
14182;DHT22;7171;50.936;6.764;2022-11-13T13:47:46;16.20;99.90
14182;DHT22;7171;50.936;6.764;2022-11-13T13:50:16;16.30;99.90
14182;DHT22;7171;50.936;6.764;2022-11-13T13:52:44;16.40;99.90
14182;DHT22;7171;50.936;6.764;2022-11-13T13:55:16;16.40;99.90
14182;DHT22;7171;50.936;6.764;2022-11-13T13:57:45;16.40;99.90
14182;DHT22;7171;50.936;6.764;2022-11-13T14:00:13;16.40;99.90
14182;DHT22;7171;50.936;6.764;2022-11-13T14:02:44;16.40;99.90
14182;DHT22;7171;50.936;6.764;2022-11-13T14:05:23;16.40;99.90
14182;DHT22;7171;50.936;6.764;2022-11-13T14:07:50;16.50;99.90
14182;DHT22;7171;50.936;6.764;2022-11-13T14:10:18;16.50;99.90
14182;DHT22;7171;50.936;6.764;2022-11-13T14:12:47;16.50;99.90
14182;DHT22;7171;50.936;6.764;2022-11-13T14:15:22;16.50;99.90
14182;DHT22;7171;50.936;6.764;2022-11-13T14:17:50;16.60;99.90
14182;DHT22;7171;50.936;6.764;2022-11-13T14:20:17;16.60;99.90
14182;DHT22;7171;50.936;6.764;2022-11-13T14:22:48;16.60;99.90
14182;DHT22;7171;50.936;6.764;2022-11-13T14:25:20;16.60;99.90
14182;DHT22;7171;50.936;6.764;2022-11-13T14:27:49;16.60;99.90
14182;DHT22;7171;50.936;6.764;2022-11-13T14:30:23;16.60;99.90
14182;DHT22;7171;50.936;6.764;2022-11-13T14:32:50;16.60;99.90
14182;DHT22;7171;50.936;6.764;2022-11-13T14:35:19;16.50;99.90
14182;DHT22;7171;50.936;6.764;2022-11-13T14:37:46;16.40;99.90
14182;DHT22;7171;50.936;6.764;2022-11-13T14:40:19;16.40;99.90
14182;DHT22;7171;50.936;6.764;2022-11-13T14:42:49;16.30;99.90
14182;DHT22;7171;50.936;6.764;2022-11-13T14:45:19;16.20;99.90
14182;DHT22;7171;50.936;6.764;2022-11-13T14:47:56;16.20;99.90
14182;DHT22;7171;50.936;6.764;2022-11-13T14:50:25;16.10;99.90
14182;DHT22;7171;50.936;6.764;2022-11-13T14:52:56;16.00;99.90
14182;DHT22;7171;50.936;6.764;2022-11-13T14:55:26;16.00;99.90
14182;DHT22;7171;50.936;6.764;2022-11-13T14:57:55;15.90;99.90
14182;DHT22;7171;50.936;6.764;2022-11-13T15:00:28;15.90;99.90
14182;DHT22;7171;50.936;6.764;2022-11-13T15:02:56;15.80;99.90
14182;DHT22;7171;50.936;6.764;2022-11-13T15:05:23;15.90;99.90
14182;DHT22;7171;50.936;6.764;2022-11-13T15:07:50;15.70;99.90
14182;DHT22;7171;50.936;6.764;2022-11-13T15:10:20;15.60;99.90
14182;DHT22;7171;50.936;6.764;2022-11-13T15:12:47;15.60;99.90
14182;DHT22;7171;50.936;6.764;2022-11-13T15:15:17;15.60;99.90
14182;DHT22;7171;50.936;6.764;2022-11-13T15:17:45;15.50;99.90
14182;DHT22;7171;50.936;6.764;2022-11-13T15:20:15;15.50;99.90
14182;DHT22;7171;50.936;6.764;2022-11-13T15:22:43;15.40;99.90
14182;DHT22;7171;50.936;6.764;2022-11-13T15:25:14;15.30;99.90
14182;DHT22;7171;50.936;6.764;2022-11-13T15:27:41;15.30;99.90
14182;DHT22;7171;50.936;6.764;2022-11-13T15:30:08;15.20;99.90
14182;DHT22;7171;50.936;6.764;2022-11-13T15:32:37;15.10;99.90
14182;DHT22;7171;50.936;6.764;2022-11-13T15:35:04;15.10;99.90
14182;DHT22;7171;50.936;6.764;2022-11-13T15:37:31;15.00;99.90
14182;DHT22;7171;50.936;6.764;2022-11-13T15:39:58;14.90;99.90
14182;DHT22;7171;50.936;6.764;2022-11-13T15:42:27;14.80;99.90
14182;DHT22;7171;50.936;6.764;2022-11-13T15:44:55;14.80;99.90
14182;DHT22;7171;50.936;6.764;2022-11-13T15:47:26;14.70;99.90
14182;DHT22;7171;50.936;6.764;2022-11-13T15:49:54;14.60;99.90
14182;DHT22;7171;50.936;6.764;2022-11-13T15:52:22;14.50;99.90
14182;DHT22;7171;50.936;6.764;2022-11-13T15:54:50;14.40;99.90
14182;DHT22;7171;50.936;6.764;2022-11-13T15:57:19;14.30;99.90
14182;DHT22;7171;50.936;6.764;2022-11-13T15:59:46;14.30;99.90
14182;DHT22;7171;50.936;6.764;2022-11-13T16:02:13;14.20;99.90
14182;DHT22;7171;50.936;6.764;2022-11-13T16:04:40;14.10;99.90
14182;DHT22;7171;50.936;6.764;2022-11-13T16:07:13;14.10;99.90